Time,TemperatureF,DewpointF,PressureIn,WindDirection,WindDirectionDegrees,WindSpeedMPH,WindSpeedGustMPH,Humidity,HourlyPrecipIn,Conditions,Clouds,dailyrainin,SoftwareType,DateUTC
2013-03-09 00:27:00,53.6,49.8,29.86,ENE,68,0.0,0.0,87,0.00,,SCT,0.00,WUHU21623XXSP,2013-03-08 22:27:00,
2013-03-09 01:27:00,52.9,49.1,29.85,NNE,23,0.0,0.0,87,0.00,,SCT,0.00,WUHU21623XXSP,2013-03-08 23:27:00,
2013-03-09 02:27:00,52.7,49.2,29.84,North,0,0.0,0.0,88,0.00,,SCT,0.00,WUHU21623XXSP,2013-03-09 00:27:00,
2013-03-09 03:27:00,52.2,48.7,29.83,NE,45,0.0,0.0,88,0.00,,SCT,0.00,WUHU21623XXSP,2013-03-09 01:27:00,
2013-03-09 04:27:00,52.3,49.1,29.81,NE,45,0.0,0.0,89,0.00,,SCT,0.00,WUHU21623XXSP,2013-03-09 02:27:00,
2013-03-09 05:27:00,51.8,48.9,29.81,NNE,23,0.0,0.0,90,0.00,,SCT,0.00,WUHU21623XXSP,2013-03-09 03:27:00,
2013-03-09 06:27:00,52.3,49.7,29.81,North,0,0.0,0.0,91,0.00,,SCT,0.00,WUHU21623XXSP,2013-03-09 04:27:00,
2013-03-09 07:34:00,52.7,50.1,29.81,NNE,22,0.0,0.0,91,0.00,,OVC,0.00,WUHU21623XXSP,2013-03-09 05:34:00,
2013-03-09 07:39:00,52.7,50.1,29.81,North,0,0.0,0.0,91,0.00,,OVC,0.00,WUHU21623XXSP,2013-03-09 05:39:00,
2013-03-09 07:44:00,53.1,50.5,29.81,NE,45,0.0,1.2,91,0.00,,OVC,0.00,WUHU21623XXSP,2013-03-09 05:44:00,
2013-03-09 07:49:00,53.2,50.6,29.81,NNE,22,0.0,1.8,91,0.00,,OVC,0.00,WUHU21623XXSP,2013-03-09 05:49:00,
2013-03-09 07:54:00,53.4,50.8,29.81,NNE,22,0.0,1.8,91,0.00,,OVC,0.00,WUHU21623XXSP,2013-03-09 05:54:00,
2013-03-09 07:59:00,53.8,51.2,29.81,NNE,22,0.0,0.0,91,0.00,,OVC,0.00,WUHU21623XXSP,2013-03-09 05:59:00,
2013-03-09 08:04:00,53.8,51.2,29.81,NNE,22,0.0,0.0,91,0.00,,OVC,0.00,WUHU21623XXSP,2013-03-09 06:04:00,
2013-03-09 08:09:00,54.0,51.4,29.81,NE,45,1.2,1.2,91,0.00,,OVC,0.00,WUHU21623XXSP,2013-03-09 06:09:00,
2013-03-09 08:14:00,54.0,51.4,29.81,NNE,22,0.0,1.2,91,0.00,,OVC,0.00,WUHU21623XXSP,2013-03-09 06:14:00,
2013-03-09 08:19:00,54.3,51.4,29.81,North,0,0.0,0.0,90,0.00,,OVC,0.00,WUHU21623XXSP,2013-03-09 06:19:00,
2013-03-09 08:24:00,54.5,51.6,29.81,North,0,0.0,0.0,90,0.00,,OVC,0.00,WUHU21623XXSP,2013-03-09 06:24:00,
2013-03-09 08:29:00,54.5,51.3,29.81,NNW,337,0.0,0.0,89,0.00,,OVC,0.00,WUHU21623XXSP,2013-03-09 06:29:00,
2013-03-09 08:34:00,54.9,51.7,29.81,NNW,337,0.0,0.0,89,0.00,,OVC,0.00,WUHU21623XXSP,2013-03-09 06:34:00,
2013-03-09 08:39:00,54.9,51.7,29.81,NNW,337,0.0,0.0,89,0.00,,OVC,0.00,WUHU21623XXSP,2013-03-09 06:39:00,
2013-03-09 08:44:00,54.9,51.7,29.81,NW,315,0.0,0.0,89,0.00,,OVC,0.00,WUHU21623XXSP,2013-03-09 06:44:00,
2013-03-09 08:49:00,55.0,51.8,29.81,NNE,22,0.0,0.0,89,0.00,,OVC,0.00,WUHU21623XXSP,2013-03-09 06:49:00,
2013-03-09 08:54:00,55.2,52.0,29.81,NW,315,0.0,0.0,89,0.00,,OVC,0.00,WUHU21623XXSP,2013-03-09 06:54:00,
2013-03-09 08:59:00,55.6,52.1,29.82,NNW,337,0.0,0.0,88,0.00,,OVC,0.00,WUHU21623XXSP,2013-03-09 06:59:00,
2013-03-09 09:04:00,55.8,52.3,29.82,North,0,0.0,0.0,88,0.00,,BKN,0.00,WUHU21623XXSP,2013-03-09 07:04:00,
2013-03-09 09:09:00,56.1,52.6,29.82,North,0,0.0,0.0,88,0.00,,BKN,0.00,WUHU21623XXSP,2013-03-09 07:09:00,
2013-03-09 09:14:00,56.3,51.8,29.81,NNE,22,0.0,0.0,85,0.00,,BKN,0.00,WUHU21623XXSP,2013-03-09 07:14:00,
2013-03-09 09:19:00,57.4,52.3,29.82,North,0,0.0,2.0,83,0.00,,BKN,0.00,WUHU21623XXSP,2013-03-09 07:19:00,
2013-03-09 09:24:00,58.3,51.5,29.82,NE,45,0.0,2.0,78,0.00,,BKN,0.00,WUHU21623XXSP,2013-03-09 07:24:00,
2013-03-09 09:29:00,59.5,51.7,29.82,SW,225,0.0,0.0,75,0.00,,BKN,0.00,WUHU21623XXSP,2013-03-09 07:29:00,
2013-03-09 09:34:00,59.5,50.6,29.82,South,180,0.0,0.0,72,0.00,,BKN,0.00,WUHU21623XXSP,2013-03-09 07:34:00,
2013-03-09 09:39:00,59.7,50.8,29.82,South,180,0.0,0.0,72,0.00,,SCT,0.00,WUHU21623XXSP,2013-03-09 07:39:00,
2013-03-09 09:44:00,59.9,50.2,29.82,SSW,202,0.0,0.0,70,0.00,,SCT,0.00,WUHU21623XXSP,2013-03-09 07:44:00,
2013-03-09 09:49:00,60.1,49.6,29.82,South,180,0.0,3.4,68,0.00,,SCT,0.00,WUHU21623XXSP,2013-03-09 07:49:00,
2013-03-09 09:54:00,59.7,49.7,29.82,North,0,0.0,3.4,69,0.00,,SCT,0.00,WUHU21623XXSP,2013-03-09 07:54:00,
2013-03-09 09:59:00,59.7,49.7,29.81,NNE,22,0.0,1.4,69,0.00,,SCT,0.00,WUHU21623XXSP,2013-03-09 07:59:00,
2013-03-09 10:04:00,60.6,50.1,29.82,WSW,247,0.0,0.0,68,0.00,,SCT,0.00,WUHU21623XXSP,2013-03-09 08:04:00,
2013-03-09 10:09:00,61.0,49.7,29.82,West,270,0.0,2.4,66,0.00,,SCT,0.00,WUHU21623XXSP,2013-03-09 08:09:00,
2013-03-09 10:14:00,61.3,49.6,29.82,WNW,292,0.0,2.4,65,0.00,,SCT,0.00,WUHU21623XXSP,2013-03-09 08:14:00,
2013-03-09 10:19:00,61.5,48.9,29.81,South,180,2.4,4.0,63,0.00,,SCT,0.00,WUHU21623XXSP,2013-03-09 08:19:00,
2013-03-09 10:24:00,61.7,48.7,29.81,WSW,247,0.0,5.6,62,0.00,,SCT,0.00,WUHU21623XXSP,2013-03-09 08:24:00,
2013-03-09 10:29:00,62.2,49.2,29.81,South,180,0.0,5.6,62,0.00,,SCT,0.00,WUHU21623XXSP,2013-03-09 08:29:00,
2013-03-09 10:34:00,62.2,48.3,29.81,NW,315,0.0,4.0,60,0.00,,SCT,0.00,WUHU21623XXSP,2013-03-09 08:34:00,
2013-03-09 10:39:00,62.1,47.7,29.81,WNW,292,0.0,5.2,59,0.00,,SCT,0.00,WUHU21623XXSP,2013-03-09 08:39:00,
2013-03-09 10:44:00,62.6,48.7,29.81,SSE,157,0.0,5.2,60,0.00,,SCT,0.00,WUHU21623XXSP,2013-03-09 08:44:00,
2013-03-09 10:49:00,62.4,48.0,29.81,SSW,202,0.0,4.9,59,0.00,,SCT,0.00,WUHU21623XXSP,2013-03-09 08:49:00,
2013-03-09 10:54:00,63.0,48.6,29.81,West,270,1.2,3.0,59,0.00,,SCT,0.00,WUHU21623XXSP,2013-03-09 08:54:00,
2013-03-09 10:59:00,63.3,48.4,29.81,NW,315,0.0,4.9,58,0.00,,SCT,0.00,WUHU21623XXSP,2013-03-09 08:59:00,
2013-03-09 11:04:00,63.9,49.0,29.81,SSE,157,7.2,7.2,58,0.00,,SCT,0.00,WUHU21623XXSP,2013-03-09 09:04:00,
2013-03-09 11:09:00,64.0,48.1,29.81,South,180,1.2,9.4,56,0.00,,SCT,0.00,WUHU21623XXSP,2013-03-09 09:09:00,
2013-03-09 11:14:00,64.0,47.6,29.81,WNW,292,0.0,9.4,55,0.00,,SCT,0.00,WUHU21623XXSP,2013-03-09 09:14:00,
2013-03-09 11:19:00,64.6,48.7,29.80,SW,225,4.7,7.2,56,0.00,,SCT,0.00,WUHU21623XXSP,2013-03-09 09:19:00,
2013-03-09 11:24:00,64.4,47.5,29.80,SSW,202,4.9,6.2,54,0.00,,FEW,0.00,WUHU21623XXSP,2013-03-09 09:24:00,
2013-03-09 11:29:00,64.8,47.9,29.80,SW,225,4.7,6.2,54,0.00,,FEW,0.00,WUHU21623XXSP,2013-03-09 09:29:00,
2013-03-09 11:34:00,65.1,47.6,29.80,NNE,22,0.0,5.4,53,0.00,,FEW,0.00,WUHU21623XXSP,2013-03-09 09:34:00,
2013-03-09 11:39:00,65.3,47.8,29.80,SW,225,3.2,8.9,53,0.00,,FEW,0.00,WUHU21623XXSP,2013-03-09 09:39:00,
2013-03-09 11:44:00,65.1,47.6,29.80,SW,225,12.3,12.3,53,0.00,,FEW,0.00,WUHU21623XXSP,2013-03-09 09:44:00,
2013-03-09 11:49:00,65.7,48.2,29.80,SE,135,5.2,12.3,53,0.00,,FEW,0.00,WUHU21623XXSP,2013-03-09 09:49:00,
2013-03-09 11:54:00,66.0,47.9,29.79,NE,45,0.0,12.8,52,0.00,,FEW,0.00,WUHU21623XXSP,2013-03-09 09:54:00,
2013-03-09 11:59:00,66.0,46.9,29.80,NW,315,4.4,12.8,50,0.00,,FEW,0.00,WUHU21623XXSP,2013-03-09 09:59:00,
2013-03-09 12:04:00,66.6,48.0,29.79,SSE,157,5.4,8.4,51,0.00,,FEW,0.00,WUHU21623XXSP,2013-03-09 10:04:00,
2013-03-09 12:09:00,66.9,47.7,29.79,South,180,11.6,11.6,50,0.00,,FEW,0.00,WUHU21623XXSP,2013-03-09 10:09:00,
2013-03-09 12:14:00,66.9,47.7,29.79,SSE,157,1.4,12.8,50,0.00,,FEW,0.00,WUHU21623XXSP,2013-03-09 10:14:00,
2013-03-09 12:19:00,67.5,47.1,29.79,SW,225,4.9,12.8,48,0.00,,FEW,0.00,WUHU21623XXSP,2013-03-09 10:19:00,
2013-03-09 12:24:00,67.1,46.2,29.79,SSW,202,3.2,13.5,47,0.00,,FEW,0.00,WUHU21623XXSP,2013-03-09 10:24:00,
2013-03-09 12:29:00,67.8,47.4,29.78,WSW,247,6.9,13.5,48,0.00,,FEW,0.00,WUHU21623XXSP,2013-03-09 10:29:00,
2013-03-09 12:34:00,67.3,46.4,29.78,South,180,5.9,13.5,47,0.00,,FEW,0.00,WUHU21623XXSP,2013-03-09 10:34:00,
2013-03-09 12:39:00,67.1,46.2,29.78,WSW,247,9.1,18.3,47,0.00,,FEW,0.00,WUHU21623XXSP,2013-03-09 10:39:00,
2013-03-09 12:44:00,66.7,46.4,29.78,SSW,202,7.2,18.3,48,0.00,,FEW,0.00,WUHU21623XXSP,2013-03-09 10:44:00,
2013-03-09 12:49:00,67.1,46.8,29.78,SSW,202,9.8,11.6,48,0.00,,FEW,0.00,WUHU21623XXSP,2013-03-09 10:49:00,
2013-03-09 12:54:00,67.8,46.8,29.78,West,270,0.0,10.8,47,0.00,,FEW,0.00,WUHU21623XXSP,2013-03-09 10:54:00,
2013-03-09 12:59:00,67.8,46.8,29.78,West,270,0.0,15.5,47,0.00,,FEW,0.00,WUHU21623XXSP,2013-03-09 10:59:00,
2013-03-09 13:04:00,68.0,47.0,29.78,WSW,247,0.0,15.5,47,0.00,,FEW,0.00,WUHU21623XXSP,2013-03-09 11:04:00,
2013-03-09 13:09:00,68.0,46.4,29.78,South,180,2.8,13.8,46,0.00,,FEW,0.00,WUHU21623XXSP,2013-03-09 11:09:00,
2013-03-09 13:14:00,68.0,46.4,29.78,East,90,0.0,13.8,46,0.00,,FEW,0.00,WUHU21623XXSP,2013-03-09 11:14:00,
2013-03-09 13:19:00,67.8,46.2,29.78,SSW,202,11.1,13.1,46,0.00,,FEW,0.00,WUHU21623XXSP,2013-03-09 11:19:00,
2013-03-09 13:24:00,68.2,47.2,29.77,West,270,1.2,13.1,47,0.00,,FEW,0.00,WUHU21623XXSP,2013-03-09 11:24:00,
2013-03-09 13:29:00,68.2,46.6,29.77,SSE,157,0.0,13.3,46,0.00,,FEW,0.00,WUHU21623XXSP,2013-03-09 11:29:00,
2013-03-09 13:34:00,68.2,46.6,29.77,SSW,202,8.6,13.3,46,0.00,,FEW,0.00,WUHU21623XXSP,2013-03-09 11:34:00,
2013-03-09 13:39:00,67.8,45.6,29.76,SW,225,7.2,12.8,45,0.00,,FEW,0.00,WUHU21623XXSP,2013-03-09 11:39:00,
2013-03-09 13:44:00,67.8,46.2,29.76,West,270,0.0,12.8,46,0.00,,FEW,0.00,WUHU21623XXSP,2013-03-09 11:44:00,
2013-03-09 13:49:00,67.6,46.1,29.76,NW,315,1.0,15.5,46,0.00,,FEW,0.00,WUHU21623XXSP,2013-03-09 11:49:00,
2013-03-09 13:54:00,67.6,46.1,29.75,SE,135,4.2,15.5,46,0.00,,FEW,0.00,WUHU21623XXSP,2013-03-09 11:54:00,
2013-03-09 13:59:00,67.8,46.8,29.75,NNW,337,1.4,10.8,47,0.00,,FEW,0.00,WUHU21623XXSP,2013-03-09 11:59:00,
2013-03-09 14:00:00,67.6,46.6,29.75,WSW,247,0.0,10.8,47,0.00,,FEW,0.00,WUHU21623XXSP,2013-03-09 12:00:00,
2013-03-09 14:01:00,67.6,46.6,29.75,SSW,202,5.2,10.8,47,0.00,,FEW,0.00,WUHU21623XXSP,2013-03-09 12:01:00,
2013-03-09 14:02:00,67.6,46.1,29.75,WSW,247,3.2,10.8,46,0.00,,FEW,0.00,WUHU21623XXSP,2013-03-09 12:02:00,
2013-03-09 14:13:00,68.0,46.4,29.75,SE,135,4.2,4.2,46,0.00,,FEW,0.00,WUHU21623XXSP,2013-03-09 12:13:00,
2013-03-09 14:18:00,67.6,46.6,29.75,SE,135,4.0,14.1,47,0.00,,FEW,0.00,WUHU21623XXSP,2013-03-09 12:18:00,
2013-03-09 14:23:00,67.5,46.6,29.75,WSW,247,2.4,14.1,47,0.00,,FEW,0.00,WUHU21623XXSP,2013-03-09 12:23:00,
2013-03-09 14:28:00,67.5,46.6,29.74,WSW,247,6.6,13.1,47,0.00,,FEW,0.00,WUHU21623XXSP,2013-03-09 12:28:00,
2013-03-09 14:33:00,67.3,46.4,29.74,West,270,1.8,10.6,47,0.00,,FEW,0.00,WUHU21623XXSP,2013-03-09 12:33:00,
2013-03-09 14:38:00,67.6,46.6,29.74,South,180,7.9,11.3,47,0.00,,FEW,0.00,WUHU21623XXSP,2013-03-09 12:38:00,
2013-03-09 14:43:00,67.6,46.6,29.74,SSW,202,1.0,11.3,47,0.00,,FEW,0.00,WUHU21623XXSP,2013-03-09 12:43:00,
2013-03-09 14:48:00,67.8,46.2,29.73,South,180,1.0,11.1,46,0.00,,FEW,0.00,WUHU21623XXSP,2013-03-09 12:48:00,
2013-03-09 14:53:00,68.0,46.4,29.73,WSW,247,3.4,9.1,46,0.00,,FEW,0.00,WUHU21623XXSP,2013-03-09 12:53:00,
2013-03-09 14:58:00,68.4,46.2,29.73,WSW,247,1.8,12.5,45,0.00,,FEW,0.00,WUHU21623XXSP,2013-03-09 12:58:00,
2013-03-09 15:03:00,68.5,46.3,29.73,SSW,202,1.4,12.5,45,0.00,,FEW,0.00,WUHU21623XXSP,2013-03-09 13:03:00,
2013-03-09 15:08:00,68.7,45.8,29.73,SSE,157,1.4,10.3,44,0.00,,FEW,0.00,WUHU21623XXSP,2013-03-09 13:08:00,
2013-03-09 15:13:00,69.3,45.8,29.73,West,270,4.4,10.3,43,0.00,,FEW,0.00,WUHU21623XXSP,2013-03-09 13:13:00,
2013-03-09 15:18:00,68.9,44.8,29.73,NNW,337,0.0,10.6,42,0.00,,FEW,0.00,WUHU21623XXSP,2013-03-09 13:18:00,
2013-03-09 15:23:00,68.9,44.8,29.73,SSW,202,0.0,12.3,42,0.00,,FEW,0.00,WUHU21623XXSP,2013-03-09 13:23:00,
2013-03-09 15:28:00,69.1,45.6,29.72,SSW,202,0.0,12.3,43,0.00,,FEW,0.00,WUHU21623XXSP,2013-03-09 13:28:00,
2013-03-09 15:33:00,69.3,45.1,29.72,SE,135,0.0,11.8,42,0.00,,FEW,0.00,WUHU21623XXSP,2013-03-09 13:33:00,
2013-03-09 15:38:00,69.3,45.1,29.72,South,180,2.8,10.1,42,0.00,,FEW,0.00,WUHU21623XXSP,2013-03-09 13:38:00,
2013-03-09 15:43:00,69.3,45.8,29.72,South,180,3.0,10.1,43,0.00,,FEW,0.00,WUHU21623XXSP,2013-03-09 13:43:00,
2013-03-09 15:48:00,68.9,44.8,29.72,SSE,157,5.6,10.8,42,0.00,,FEW,0.00,WUHU21623XXSP,2013-03-09 13:48:00,
2013-03-09 15:53:00,68.9,45.4,29.72,South,180,4.4,10.8,43,0.00,,FEW,0.00,WUHU21623XXSP,2013-03-09 13:53:00,
2013-03-09 15:59:00,68.7,45.8,29.72,South,180,2.4,10.6,44,0.00,,FEW,0.00,WUHU21623XXSP,2013-03-09 13:59:00,
2013-03-09 16:04:00,68.7,46.5,29.73,South,180,4.2,10.6,45,0.00,,FEW,0.00,WUHU21623XXSP,2013-03-09 14:04:00,
2013-03-09 16:08:00,68.7,45.8,29.73,WNW,292,3.7,14.3,44,0.00,,FEW,0.00,WUHU21623XXSP,2013-03-09 14:08:00,
2013-03-09 16:14:00,68.9,46.0,29.72,SSE,157,5.9,14.3,44,0.00,,FEW,0.00,WUHU21623XXSP,2013-03-09 14:14:00,
2013-03-09 16:19:00,68.9,46.6,29.73,SSW,202,7.2,12.1,45,0.00,,FEW,0.00,WUHU21623XXSP,2013-03-09 14:19:00,
2013-03-09 16:24:00,68.9,46.6,29.73,SW,225,0.0,10.1,45,0.00,,FEW,0.00,WUHU21623XXSP,2013-03-09 14:24:00,
2013-03-09 16:29:00,68.9,46.6,29.72,WNW,292,5.2,8.4,45,0.00,,FEW,0.00,WUHU21623XXSP,2013-03-09 14:29:00,
2013-03-09 16:34:00,68.7,47.1,29.72,SSW,202,6.2,8.1,46,0.00,,FEW,0.00,WUHU21623XXSP,2013-03-09 14:34:00,
2013-03-09 16:39:00,68.7,47.7,29.72,West,270,3.7,10.8,47,0.00,,FEW,0.00,WUHU21623XXSP,2013-03-09 14:39:00,
2013-03-09 16:44:00,68.7,47.1,29.73,SW,225,0.0,10.8,46,0.00,,FEW,0.00,WUHU21623XXSP,2013-03-09 14:44:00,
2013-03-09 16:48:00,68.4,45.6,29.73,South,180,0.0,9.1,44,0.00,,FEW,0.00,WUHU21623XXSP,2013-03-09 14:48:00,
2013-03-09 16:53:00,68.4,46.8,29.73,SW,225,2.8,9.1,46,0.00,,FEW,0.00,WUHU21623XXSP,2013-03-09 14:53:00,
2013-03-09 16:59:00,68.2,46.0,29.73,SE,135,0.0,6.4,45,0.00,,FEW,0.00,WUHU21623XXSP,2013-03-09 14:59:00,
2013-03-09 17:04:00,68.4,46.2,29.73,SW,225,5.2,10.6,45,0.00,,FEW,0.00,WUHU21623XXSP,2013-03-09 15:04:00,
2013-03-09 17:09:00,68.2,45.4,29.73,NNE,22,0.0,10.6,44,0.00,,FEW,0.00,WUHU21623XXSP,2013-03-09 15:09:00,
2013-03-09 17:14:00,68.4,45.6,29.73,WNW,292,4.9,14.7,44,0.00,,FEW,0.00,WUHU21623XXSP,2013-03-09 15:14:00,
2013-03-09 17:19:00,68.2,45.4,29.73,NW,315,0.0,16.9,44,0.00,,FEW,0.00,WUHU21623XXSP,2013-03-09 15:19:00,
2013-03-09 17:24:00,67.6,44.8,29.73,WSW,247,1.0,16.9,44,0.00,,FEW,0.00,WUHU21623XXSP,2013-03-09 15:24:00,
2013-03-09 17:29:00,67.1,45.0,29.73,ENE,67,0.0,6.6,45,0.00,,FEW,0.00,WUHU21623XXSP,2013-03-09 15:29:00,
2013-03-09 17:34:00,66.7,45.2,29.73,WSW,247,0.0,7.6,46,0.00,,FEW,0.00,WUHU21623XXSP,2013-03-09 15:34:00,
2013-03-09 17:39:00,66.6,45.7,29.73,West,270,0.0,7.6,47,0.00,,FEW,0.00,WUHU21623XXSP,2013-03-09 15:39:00,
2013-03-09 17:44:00,66.2,44.8,29.73,West,270,1.4,7.4,46,0.00,,FEW,0.00,WUHU21623XXSP,2013-03-09 15:44:00,
2013-03-09 17:49:00,65.8,45.0,29.73,West,270,0.0,5.2,47,0.00,,FEW,0.00,WUHU21623XXSP,2013-03-09 15:49:00,
2013-03-09 17:54:00,65.7,44.9,29.73,South,180,0.0,5.2,47,0.00,,FEW,0.00,WUHU21623XXSP,2013-03-09 15:54:00,
2013-03-09 17:59:00,65.3,44.5,29.73,WNW,292,0.0,4.0,47,0.00,,FEW,0.00,WUHU21623XXSP,2013-03-09 15:59:00,
2013-03-09 18:04:00,65.1,44.3,29.73,ENE,67,0.0,6.9,47,0.00,,FEW,0.00,WUHU21623XXSP,2013-03-09 16:04:00,
2013-03-09 18:09:00,64.8,44.1,29.74,NNE,22,0.0,6.9,47,0.00,,FEW,0.00,WUHU21623XXSP,2013-03-09 16:09:00,
2013-03-09 18:14:00,64.8,44.1,29.74,NNW,337,3.0,5.2,47,0.00,,FEW,0.00,WUHU21623XXSP,2013-03-09 16:14:00,
2013-03-09 18:19:00,64.6,43.9,29.74,West,270,0.0,5.9,47,0.00,,FEW,0.00,WUHU21623XXSP,2013-03-09 16:19:00,
2013-03-09 18:24:00,64.2,44.1,29.74,East,90,0.0,9.4,48,0.00,,FEW,0.00,WUHU21623XXSP,2013-03-09 16:24:00,
2013-03-09 18:29:00,64.0,43.9,29.75,NW,315,0.0,11.6,48,0.00,,FEW,0.00,WUHU21623XXSP,2013-03-09 16:29:00,
2013-03-09 18:34:00,63.9,44.4,29.75,WNW,292,4.0,11.6,49,0.00,,FEW,0.00,WUHU21623XXSP,2013-03-09 16:34:00,
2013-03-09 18:39:00,63.7,44.2,29.75,SSW,202,6.9,6.9,49,0.00,,FEW,0.00,WUHU21623XXSP,2013-03-09 16:39:00,
2013-03-09 18:44:00,63.5,44.5,29.75,SSW,202,0.0,6.9,50,0.00,,FEW,0.00,WUHU21623XXSP,2013-03-09 16:44:00,
2013-03-09 18:48:00,63.3,44.9,29.75,SSE,157,0.0,3.7,51,0.00,,FEW,0.00,WUHU21623XXSP,2013-03-09 16:48:00,
2013-03-09 18:53:00,62.8,45.0,29.75,SSE,157,0.0,2.2,52,0.00,,FEW,0.00,WUHU21623XXSP,2013-03-09 16:53:00,
2013-03-09 18:59:00,62.8,45.0,29.76,South,180,0.0,0.0,52,0.00,,FEW,0.00,WUHU21623XXSP,2013-03-09 16:59:00,
2013-03-09 19:04:00,62.4,44.6,29.76,SSE,157,0.0,0.0,52,0.00,,FEW,0.00,WUHU21623XXSP,2013-03-09 17:04:00,
2013-03-09 19:09:00,62.2,44.4,29.76,West,270,6.9,6.9,52,0.00,,FEW,0.00,WUHU21623XXSP,2013-03-09 17:09:00,
2013-03-09 19:14:00,62.2,44.4,29.76,SSW,202,0.0,6.9,52,0.00,,FEW,0.00,WUHU21623XXSP,2013-03-09 17:14:00,
2013-03-09 19:27:00,62.8,45.0,29.76,WSW,248,0.0,0.0,52,0.00,,SKC,0.00,WUHU21623XXSP,2013-03-09 17:27:00,
2013-03-09 20:32:00,61.2,44.0,29.78,West,270,0.0,0.0,53,0.00,,SKC,0.00,WUHU21623XXSP,2013-03-09 18:32:00,
2013-03-09 20:37:00,61.2,44.0,29.78,North,0,0.0,2.4,53,0.00,,SKC,0.00,WUHU21623XXSP,2013-03-09 18:37:00,
2013-03-09 20:42:00,61.3,44.1,29.78,West,270,0.0,2.4,53,0.00,,SKC,0.00,WUHU21623XXSP,2013-03-09 18:42:00,
2013-03-09 20:47:00,61.3,43.6,29.78,NW,315,0.0,1.8,52,0.00,,SKC,0.00,WUHU21623XXSP,2013-03-09 18:47:00,
2013-03-09 20:52:00,61.3,43.6,29.78,SSW,202,0.0,6.9,52,0.00,,SKC,0.00,WUHU21623XXSP,2013-03-09 18:52:00,
2013-03-09 20:57:00,61.5,43.8,29.78,West,270,0.0,6.9,52,0.00,,SKC,0.00,WUHU21623XXSP,2013-03-09 18:57:00,
2013-03-09 21:02:00,61.3,43.6,29.78,WNW,292,0.0,4.0,52,0.00,,SKC,0.00,WUHU21623XXSP,2013-03-09 19:02:00,
2013-03-09 21:08:00,61.2,43.5,29.78,SSW,202,0.0,4.0,52,0.00,,SKC,0.00,WUHU21623XXSP,2013-03-09 19:08:00,
2013-03-09 21:13:00,61.2,43.5,29.79,NNW,337,0.0,7.6,52,0.00,,SKC,0.00,WUHU21623XXSP,2013-03-09 19:13:00,
2013-03-09 21:18:00,61.3,43.6,29.79,SSW,202,0.0,7.6,52,0.00,,SKC,0.00,WUHU21623XXSP,2013-03-09 19:18:00,
2013-03-09 21:23:00,61.5,43.8,29.79,SW,225,1.8,5.2,52,0.00,,SKC,0.00,WUHU21623XXSP,2013-03-09 19:23:00,
2013-03-09 21:28:00,61.5,43.2,29.79,WNW,292,0.0,5.2,51,0.00,,SKC,0.00,WUHU21623XXSP,2013-03-09 19:28:00,
2013-03-09 21:33:00,61.2,43.0,29.79,SSW,202,0.0,3.2,51,0.00,,SKC,0.00,WUHU21623XXSP,2013-03-09 19:33:00,
2013-03-09 21:38:00,61.2,43.5,29.79,WSW,247,1.0,3.7,52,0.00,,SKC,0.00,WUHU21623XXSP,2013-03-09 19:38:00,
2013-03-09 21:43:00,61.0,43.3,29.80,North,0,0.0,3.7,52,0.00,,SKC,0.00,WUHU21623XXSP,2013-03-09 19:43:00,
2013-03-09 21:48:00,61.0,43.8,29.80,North,0,0.0,12.1,53,0.00,,SKC,0.00,WUHU21623XXSP,2013-03-09 19:48:00,
2013-03-09 21:53:00,61.0,44.3,29.80,WSW,247,1.4,12.1,54,0.00,,SKC,0.00,WUHU21623XXSP,2013-03-09 19:53:00,
2013-03-09 21:58:00,60.8,44.6,29.80,West,270,2.4,5.6,55,0.00,,SKC,0.00,WUHU21623XXSP,2013-03-09 19:58:00,
2013-03-09 22:03:00,60.8,44.6,29.79,NW,315,2.0,10.6,55,0.00,,SKC,0.00,WUHU21623XXSP,2013-03-09 20:03:00,
2013-03-09 22:08:00,60.8,45.1,29.79,NW,315,0.0,10.6,56,0.00,,SKC,0.00,WUHU21623XXSP,2013-03-09 20:08:00,
2013-03-09 22:13:00,60.4,44.7,29.79,NNW,337,0.0,6.9,56,0.00,,SKC,0.00,WUHU21623XXSP,2013-03-09 20:13:00,
2013-03-09 22:18:00,60.4,44.7,29.79,SSW,202,0.0,5.6,56,0.00,,SKC,0.00,WUHU21623XXSP,2013-03-09 20:18:00,
2013-03-09 22:23:00,60.3,44.6,29.79,West,270,0.0,5.6,56,0.00,,SKC,0.00,WUHU21623XXSP,2013-03-09 20:23:00,
2013-03-09 22:28:00,60.3,45.1,29.80,SW,225,0.0,4.4,57,0.00,,SKC,0.00,WUHU21623XXSP,2013-03-09 20:28:00,
2013-03-09 22:33:00,59.9,44.7,29.80,SW,225,0.0,4.4,57,0.00,,SKC,0.00,WUHU21623XXSP,2013-03-09 20:33:00,
2013-03-09 22:38:00,59.9,44.7,29.80,SSW,202,0.0,1.8,57,0.00,,SKC,0.00,WUHU21623XXSP,2013-03-09 20:38:00,
2013-03-09 22:43:00,59.4,44.7,29.80,SW,225,0.0,2.2,58,0.00,,SKC,0.00,WUHU21623XXSP,2013-03-09 20:43:00,
2013-03-09 22:48:00,59.2,45.0,29.80,SSE,157,0.0,2.2,59,0.00,,SKC,0.00,WUHU21623XXSP,2013-03-09 20:48:00,
2013-03-09 22:53:00,59.0,44.8,29.80,SSE,157,0.0,3.7,59,0.00,,SKC,0.00,WUHU21623XXSP,2013-03-09 20:53:00,
2013-03-09 22:58:00,58.6,44.9,29.80,South,180,0.0,3.7,60,0.00,,SKC,0.00,WUHU21623XXSP,2013-03-09 20:58:00,
2013-03-09 23:03:00,58.5,44.8,29.80,South,180,0.0,0.0,60,0.00,,SKC,0.00,WUHU21623XXSP,2013-03-09 21:03:00,
2013-03-09 23:08:00,58.5,45.2,29.80,South,180,0.0,0.0,61,0.00,,SKC,0.00,WUHU21623XXSP,2013-03-09 21:08:00,
2013-03-09 23:13:00,58.5,45.2,29.81,SW,225,0.0,3.2,61,0.00,,SKC,0.00,WUHU21623XXSP,2013-03-09 21:13:00,
2013-03-09 23:18:00,58.5,45.2,29.81,NNW,337,0.0,3.2,61,0.00,,SKC,0.00,WUHU21623XXSP,2013-03-09 21:18:00,
2013-03-09 23:23:00,58.5,45.2,29.81,SW,225,0.0,4.9,61,0.00,,SKC,0.00,WUHU21623XXSP,2013-03-09 21:23:00,
2013-03-09 23:28:00,58.1,44.4,29.81,SSW,202,0.0,4.9,60,0.00,,SKC,0.00,WUHU21623XXSP,2013-03-09 21:28:00,